createdAt,value
2023-05-14T00:00:00.588Z,78.4
2023-05-14T00:10:00.526Z,77.9
2023-05-14T00:20:00.545Z,77.9
2023-05-14T00:30:00.599Z,77.3
2023-05-14T00:40:00.682Z,77.6
2023-05-14T00:50:00.514Z,78.1
2023-05-14T01:00:00.558Z,77.4
2023-05-14T01:10:00.515Z,77.5
2023-05-14T01:20:00.539Z,77.5
2023-05-14T01:30:00.534Z,77.3
2023-05-14T01:40:00.564Z,76.8
2023-05-14T01:50:00.671Z,77.0
2023-05-14T02:00:00.558Z,77.5
2023-05-14T02:10:00.534Z,77.5
2023-05-14T02:20:00.890Z,76.5
2023-05-14T02:30:00.558Z,76.3
2023-05-14T02:40:00.538Z,76.5
2023-05-14T02:50:00.531Z,76.6
2023-05-14T03:00:00.624Z,76.4
2023-05-14T03:10:00.526Z,76.0
2023-05-14T03:20:00.557Z,76.5
2023-05-14T03:30:00.594Z,75.6
2023-05-14T03:40:01.938Z,75.9
2023-05-14T03:50:00.635Z,75.2
2023-05-14T04:00:00.591Z,74.5
2023-05-14T04:10:03.349Z,74.6
2023-05-14T04:20:00.548Z,74.9
2023-05-14T04:30:00.527Z,75.0
2023-05-14T04:40:00.534Z,74.8
2023-05-14T04:50:00.511Z,74.7
2023-05-14T05:00:00.657Z,74.5
2023-05-14T05:10:00.650Z,73.8
2023-05-14T05:20:00.710Z,72.4
2023-05-14T05:30:00.669Z,72.4
2023-05-14T05:40:01.153Z,71.9
2023-05-14T05:50:00.722Z,73.0
2023-05-14T06:00:00.599Z,73.2
2023-05-14T06:10:00.539Z,74.3
2023-05-14T06:20:00.554Z,74.3
2023-05-14T06:30:00.695Z,74.8
2023-05-14T06:40:00.578Z,74.9
2023-05-14T06:50:00.568Z,75.0
2023-05-14T07:00:02.846Z,76.0
2023-05-14T07:10:00.543Z,76.9
2023-05-14T07:20:00.496Z,76.3
2023-05-14T07:30:00.469Z,75.7
2023-05-14T07:40:00.571Z,74.0
2023-05-14T07:50:00.493Z,72.7
2023-05-14T08:00:00.484Z,71.7
2023-05-14T08:10:00.505Z,72.1
2023-05-14T08:20:00.483Z,71.9
2023-05-14T08:30:00.517Z,71.9
2023-05-14T08:40:00.513Z,71.3
2023-05-14T08:50:00.555Z,71.7
2023-05-14T09:00:00.503Z,72.6
2023-05-14T09:10:00.480Z,73.5
2023-05-14T09:20:00.531Z,75.9
2023-05-14T09:30:00.886Z,77.9
2023-05-14T09:40:00.467Z,79.5
2023-05-14T09:50:00.525Z,81.4
2023-05-14T10:00:00.654Z,80.7
2023-05-14T10:10:00.468Z,81.3
2023-05-14T10:20:00.488Z,82.0
2023-05-14T10:30:00.486Z,81.0
2023-05-14T10:40:00.502Z,81.4
2023-05-14T10:50:00.459Z,81.9
2023-05-14T11:00:00.471Z,81.9
2023-05-14T11:10:00.551Z,84.0
2023-05-14T11:20:00.516Z,84.2
2023-05-14T11:30:00.488Z,83.5
2023-05-14T11:40:00.315Z,84.9
2023-05-14T11:50:00.229Z,85.1
2023-05-14T12:00:00.296Z,85.4
2023-05-14T12:10:00.777Z,87.1
2023-05-14T12:20:00.759Z,83.5
2023-05-14T12:30:12.986Z,82.9
2023-05-14T12:40:00.639Z,86.4
2023-05-14T12:50:00.599Z,84.2
2023-05-14T13:00:00.604Z,86.0
2023-05-14T13:10:00.613Z,86.3
2023-05-14T13:20:00.596Z,85.9
2023-05-14T13:30:00.834Z,86.2
2023-05-14T13:40:00.629Z,87.5
2023-05-14T13:50:00.649Z,88.8
2023-05-14T14:00:00.592Z,89.4
2023-05-14T14:10:00.585Z,91.2
2023-05-14T14:20:00.585Z,91.2
2023-05-14T14:30:00.614Z,91.6
2023-05-14T14:40:00.777Z,92.0
2023-05-14T14:50:00.583Z,92.5
2023-05-14T15:00:02.326Z,92.2
2023-05-14T15:10:00.609Z,93.3
2023-05-14T15:20:00.611Z,93.1
2023-05-14T15:30:00.605Z,92.9
2023-05-14T15:40:00.609Z,92.5
2023-05-14T15:50:00.661Z,93.1
2023-05-14T16:00:00.599Z,92.7
2023-05-14T16:10:00.606Z,93.4
2023-05-14T16:20:00.748Z,92.7
2023-05-14T16:30:00.636Z,93.1
2023-05-14T16:40:00.620Z,93.4
2023-05-14T16:50:00.593Z,94.0
2023-05-14T17:00:00.819Z,94.6
2023-05-14T17:10:00.675Z,94.6
2023-05-14T17:20:01.009Z,95.2
2023-05-14T17:30:00.632Z,94.7
2023-05-14T17:40:00.635Z,94.5
2023-05-14T17:50:00.586Z,94.3
2023-05-14T18:00:00.825Z,94.6
2023-05-14T18:10:00.682Z,94.8
2023-05-14T18:20:00.624Z,94.5
2023-05-14T18:30:00.652Z,94.2
2023-05-14T18:40:00.610Z,94.7
2023-05-14T18:50:00.652Z,94.9
2023-05-14T19:00:00.615Z,95.3
2023-05-14T19:10:00.634Z,94.3
2023-05-14T19:20:00.700Z,94.8
2023-05-14T19:30:00.600Z,95.1
2023-05-14T19:40:00.603Z,94.9
2023-05-14T19:50:00.618Z,95.0
2023-05-14T20:00:00.622Z,95.2
2023-05-14T20:10:00.620Z,95.9
2023-05-14T20:20:00.609Z,95.7
2023-05-14T20:30:00.759Z,96.1
2023-05-14T20:40:00.769Z,95.7
2023-05-14T20:50:01.924Z,95.6
2023-05-14T21:00:00.625Z,95.3
2023-05-14T21:10:00.663Z,95.6
2023-05-14T21:20:00.615Z,96.0
2023-05-14T21:30:00.607Z,96.3
2023-05-14T21:40:00.702Z,95.7
2023-05-14T21:50:00.617Z,95.8
2023-05-14T22:00:00.723Z,96.0
2023-05-14T22:10:00.626Z,95.6
2023-05-14T22:20:00.659Z,95.5
2023-05-14T22:30:00.608Z,95.5
2023-05-14T22:40:00.653Z,95.3
2023-05-14T22:50:00.683Z,95.4
2023-05-14T23:00:00.598Z,95.8
2023-05-14T23:10:00.590Z,95.8
2023-05-14T23:20:00.608Z,95.8
2023-05-14T23:30:00.609Z,95.6
2023-05-14T23:40:00.611Z,95.8
2023-05-14T23:50:00.610Z,95.9
